Погода Бугенвильна неделю

Куликоро, Мали

27 февраля-04 марта
  • 27февраля
    Сегодня
    +26°
    +40°
    Облачно с прояснениями
    ВремяПогодаТемператураВлажностьДавлениеВетер, м/сВероятность осадков
    00:00Ясно и безоблачно+27°C21 %730 мм2.1 м/с2 %
    03:00Ясно и безоблачно+25°C23 %728 мм0.4 м/с2 %
    06:00Небольшая облачность+23°C43 %729 мм3.3 м/с2 %
    09:00Практически безоблачно+28°C43 %731 мм1.5 м/с2 %
    12:00Облачно с прояснениями+36°C26 %730 мм2.5 м/с2 %
    15:00Облачно с прояснениями+39°C18 %728 мм1.5 м/с3 %
    18:00Ясно и безоблачно+38°C19 %727 мм1.0 м/с2 %
    21:00Ясно и безоблачно+32°C31 %729 мм0.7 м/с2 %
  • 28февраля
    Среда
    +22°
    +40°
    Ясно и безоблачно
    ВремяПогодаТемператураВлажностьДавлениеВетер, м/сВероятность осадков
    00:00Ясно и безоблачно+30°C36 %730 мм1.9 м/с2 %
    03:00Небольшая облачность+28°C42 %729 мм0.4 м/с2 %
    06:00Ясно и безоблачно+26°C50 %729 мм2.3 м/с2 %
    09:00Ясно и безоблачно+29°C45 %731 мм1.6 м/с2 %
    12:00Ясно и безоблачно+36°C28 %730 мм3.0 м/с2 %
    15:00Ясно и безоблачно+40°C20 %728 мм1.6 м/с7 %
    18:00Ясно и безоблачно+39°C19 %727 мм0.9 м/с2 %
    21:00Практически безоблачно+33°C27 %729 мм0.7 м/с2 %
  • 29февраля
    Четверг
    +22°
    +40°
    Ясно и безоблачно
    ВремяПогодаТемператураВлажностьДавлениеВетер, м/сВероятность осадков
    00:00Практически безоблачно+32°C27 %729 мм1.0 м/с2 %
    03:00Ясно и безоблачно+28°C35 %729 мм0.3 м/с2 %
    06:00Ясно и безоблачно+25°C62 %729 мм2.9 м/с2 %
    09:00Ясно и безоблачно+28°C57 %731 мм1.4 м/с2 %
    12:00Ясно и безоблачно+36°C29 %730 мм0.5 м/с2 %
    15:00Ясно и безоблачно+39°C17 %727 мм1.8 м/с2 %
    18:00Ясно и безоблачно+38°C14 %727 мм2.5 м/с2 %
    21:00Ясно и безоблачно+32°C19 %729 мм0.9 м/с2 %
  • 01марта
    Пятница
    +24°
    +39°
    Облачно с прояснениями
    ВремяПогодаТемператураВлажностьДавлениеВетер, м/сВероятность осадков
    00:00Ясно и безоблачно+29°C10 %729 мм2.7 м/с2 %
    03:00Небольшая облачность+26°C11 %728 мм0.7 м/с2 %
    06:00Практически безоблачно+22°C15 %729 мм2.5 м/с2 %
    09:00Облачно с прояснениями+27°C11 %731 мм1.3 м/с2 %
    12:00Ясно и безоблачно+35°C10 %730 мм0.4 м/с2 %
    15:00Облачно с прояснениями+39°C9 %727 мм1.6 м/с2 %
    18:00Ясно и безоблачно+38°C12 %727 мм1.1 м/с2 %
    21:00Практически безоблачно+32°C18 %729 мм0.7 м/с2 %
Мы используем cookies
Соглашаюсь